createdAt,value
2023-02-26T00:01:15.850Z,88.90
2023-02-26T00:03:42.789Z,88.80
2023-02-26T00:06:09.754Z,89.20
2023-02-26T00:08:36.738Z,89.50
2023-02-26T00:11:07.756Z,89.80
2023-02-26T00:13:36.338Z,89.90
2023-02-26T00:16:03.678Z,90.00
2023-02-26T00:18:30.718Z,90.40
2023-02-26T00:20:57.853Z,90.00
2023-02-26T00:23:24.790Z,90.00
2023-02-26T00:25:51.548Z,89.90
2023-02-26T00:28:18.632Z,89.90
2023-02-26T00:30:45.873Z,89.90
2023-02-26T00:33:12.870Z,89.70
2023-02-26T00:35:39.952Z,89.50
2023-02-26T00:38:12.220Z,89.50
2023-02-26T00:40:48.957Z,89.20
2023-02-26T00:43:22.870Z,89.10
2023-02-26T00:46:25.049Z,89.30
2023-02-26T00:49:28.167Z,88.70
2023-02-26T00:51:59.154Z,88.40
2023-02-26T00:54:28.065Z,88.90
2023-02-26T00:56:56.013Z,89.10
2023-02-26T00:59:23.855Z,89.20
2023-02-26T01:01:51.978Z,89.30
2023-02-26T01:04:22.597Z,89.40
2023-02-26T01:06:53.585Z,89.50
2023-02-26T01:09:33.366Z,89.60
2023-02-26T01:12:03.687Z,89.40
2023-02-26T01:14:32.570Z,89.50
2023-02-26T01:17:03.083Z,89.60
2023-02-26T01:19:54.421Z,89.60
2023-02-26T01:22:33.352Z,89.60
2023-02-26T01:25:05.519Z,89.80
2023-02-26T01:27:33.027Z,90.00
2023-02-26T01:30:00.483Z,90.00
2023-02-26T01:32:42.312Z,90.10
2023-02-26T01:35:36.938Z,90.10
2023-02-26T01:38:07.971Z,90.10
2023-02-26T01:40:52.871Z,90.20
2023-02-26T01:43:47.876Z,90.20
2023-02-26T01:46:36.821Z,90.20
2023-02-26T01:49:04.887Z,90.20
2023-02-26T01:51:53.409Z,90.30
2023-02-26T01:54:40.075Z,90.40
2023-02-26T01:57:15.984Z,90.50
2023-02-26T01:59:46.790Z,90.50
2023-02-26T02:02:20.543Z,90.50
2023-02-26T02:04:49.397Z,90.60
2023-02-26T02:07:17.520Z,90.70
2023-02-26T02:09:47.590Z,90.70
2023-02-26T02:12:34.009Z,90.80
2023-02-26T02:15:13.403Z,90.80
2023-02-26T02:18:11.686Z,90.90
2023-02-26T02:20:50.440Z,90.90
2023-02-26T02:23:27.106Z,90.90
2023-02-26T02:26:18.929Z,91.00
2023-02-26T02:29:08.900Z,90.90
2023-02-26T02:31:49.840Z,90.90
2023-02-26T02:34:26.997Z,90.90
2023-02-26T02:37:17.372Z,90.90
2023-02-26T02:39:52.987Z,90.90
2023-02-26T02:42:26.945Z,90.90
2023-02-26T02:44:58.745Z,91.00
2023-02-26T02:47:28.271Z,91.00
2023-02-26T02:50:01.518Z,91.40
2023-02-26T02:52:50.681Z,91.00
2023-02-26T02:55:26.952Z,91.00
2023-02-26T02:58:04.741Z,91.00
2023-02-26T03:00:36.353Z,90.90
2023-02-26T03:03:36.610Z,91.00
2023-02-26T03:06:04.064Z,90.90
2023-02-26T03:08:41.591Z,91.00
2023-02-26T03:11:09.425Z,91.00
2023-02-26T03:13:39.400Z,91.00
2023-02-26T03:16:30.042Z,90.90
2023-02-26T03:19:15.598Z,90.80
2023-02-26T03:21:54.912Z,90.80
2023-02-26T03:25:09.527Z,90.80
2023-02-26T03:27:42.714Z,90.80
2023-02-26T03:30:16.675Z,91.00
2023-02-26T03:32:59.181Z,90.70
2023-02-26T03:35:44.913Z,90.90
2023-02-26T03:38:45.683Z,90.80
2023-02-26T03:41:17.954Z,90.70
2023-02-26T03:44:05.276Z,90.80
2023-02-26T03:46:48.426Z,90.70
2023-02-26T03:49:24.270Z,90.80
2023-02-26T03:51:52.313Z,90.80
2023-02-26T03:54:45.403Z,90.80
2023-02-26T03:57:32.844Z,90.80
2023-02-26T04:00:17.849Z,90.80
2023-02-26T04:02:55.223Z,90.80
2023-02-26T04:05:26.494Z,90.60
2023-02-26T04:07:54.211Z,90.70
2023-02-26T04:10:29.624Z,90.80
2023-02-26T04:13:02.566Z,90.80
2023-02-26T04:15:29.620Z,90.80
2023-02-26T04:17:56.396Z,90.90
2023-02-26T04:20:23.454Z,91.00
2023-02-26T04:22:50.243Z,91.00
2023-02-26T04:25:20.651Z,91.00
2023-02-26T04:27:47.648Z,91.00
2023-02-26T04:30:14.741Z,91.00
2023-02-26T04:32:41.471Z,91.00
2023-02-26T04:35:10.870Z,91.00
2023-02-26T04:37:37.674Z,91.40
2023-02-26T04:40:05.016Z,91.00
2023-02-26T04:42:32.075Z,91.00
2023-02-26T04:44:59.100Z,91.00
2023-02-26T04:47:27.566Z,91.00
2023-02-26T04:49:54.558Z,91.10
2023-02-26T04:52:21.528Z,91.10
2023-02-26T04:54:48.944Z,91.00
2023-02-26T04:57:16.477Z,91.00
2023-02-26T04:59:44.407Z,91.00
2023-02-26T05:02:12.782Z,91.00
2023-02-26T05:04:41.788Z,91.00
2023-02-26T05:07:08.642Z,91.00
2023-02-26T05:09:35.793Z,91.00
2023-02-26T05:12:02.556Z,91.10
2023-02-26T05:14:29.697Z,91.10
2023-02-26T05:16:57.927Z,91.10
2023-02-26T05:19:24.776Z,91.10
2023-02-26T05:21:51.910Z,91.10
2023-02-26T05:24:18.739Z,91.10
2023-02-26T05:26:46.751Z,91.10
2023-02-26T05:29:13.592Z,91.20
2023-02-26T05:31:40.432Z,91.30
2023-02-26T05:34:07.376Z,91.20
2023-02-26T05:36:34.194Z,91.30
2023-02-26T05:39:01.027Z,91.30
2023-02-26T05:41:27.811Z,91.30
2023-02-26T05:43:54.599Z,91.30
2023-02-26T05:46:21.426Z,91.30
2023-02-26T05:48:48.250Z,91.40
2023-02-26T05:51:15.018Z,91.50
2023-02-26T05:53:41.801Z,91.50
2023-02-26T05:56:08.589Z,91.50
2023-02-26T05:58:35.451Z,91.60
2023-02-26T06:01:02.178Z,91.60
2023-02-26T06:03:29.096Z,91.60
2023-02-26T06:05:55.946Z,91.70
2023-02-26T06:08:22.882Z,91.70
2023-02-26T06:10:51.367Z,91.70
2023-02-26T06:13:18.506Z,91.70
2023-02-26T06:15:45.259Z,91.70
2023-02-26T06:18:12.076Z,91.80
2023-02-26T06:20:38.915Z,91.80
2023-02-26T06:23:05.691Z,91.80
2023-02-26T06:25:32.539Z,91.90
2023-02-26T06:27:59.296Z,91.90
2023-02-26T06:30:26.081Z,92.00
2023-02-26T06:32:52.891Z,92.10
2023-02-26T06:35:19.623Z,92.10
2023-02-26T06:37:46.443Z,92.20
2023-02-26T06:40:13.514Z,92.20
2023-02-26T06:42:40.330Z,92.30
2023-02-26T06:45:07.869Z,92.30
2023-02-26T06:47:34.634Z,92.30
2023-02-26T06:50:02.924Z,92.30
2023-02-26T06:52:30.164Z,92.40
2023-02-26T06:54:57.079Z,92.40
2023-02-26T06:57:23.924Z,92.50
2023-02-26T06:59:51.764Z,92.50
2023-02-26T07:02:21.223Z,92.60
2023-02-26T07:04:48.034Z,92.60
2023-02-26T07:07:16.082Z,92.70
2023-02-26T07:09:45.610Z,92.80
2023-02-26T07:12:12.917Z,92.90
2023-02-26T07:14:40.246Z,92.90
2023-02-26T07:17:07.496Z,93.00
2023-02-26T07:19:34.305Z,93.30
2023-02-26T07:22:01.309Z,93.80
2023-02-26T07:24:28.153Z,94.50
2023-02-26T07:26:54.918Z,95.10
2023-02-26T07:29:21.675Z,95.40
2023-02-26T07:31:48.501Z,95.50
2023-02-26T07:34:15.358Z,95.50
2023-02-26T07:36:42.137Z,95.30
2023-02-26T07:39:08.934Z,94.80
2023-02-26T07:41:35.720Z,94.10
2023-02-26T07:44:02.538Z,93.50
2023-02-26T07:46:29.562Z,93.00
2023-02-26T07:48:56.439Z,92.50
2023-02-26T07:51:23.572Z,92.10
2023-02-26T07:53:50.477Z,91.80
2023-02-26T07:56:17.248Z,91.50
2023-02-26T07:58:44.068Z,91.40
2023-02-26T08:01:10.794Z,91.20
2023-02-26T08:03:37.507Z,91.20
2023-02-26T08:06:05.299Z,90.60
2023-02-26T08:08:33.329Z,90.50
2023-02-26T08:11:00.959Z,90.70
2023-02-26T08:13:28.028Z,90.50
2023-02-26T08:15:54.721Z,91.00
2023-02-26T08:18:21.640Z,91.60
2023-02-26T08:20:52.020Z,92.00
2023-02-26T08:23:19.276Z,92.20
2023-02-26T08:25:46.174Z,92.90
2023-02-26T08:28:13.432Z,93.50
2023-02-26T08:30:40.213Z,93.70
2023-02-26T08:33:06.905Z,93.90
2023-02-26T08:35:33.545Z,93.40
2023-02-26T08:38:00.446Z,93.30
2023-02-26T08:40:27.159Z,93.40
2023-02-26T08:42:53.779Z,93.10
2023-02-26T08:45:20.569Z,93.00
2023-02-26T08:47:56.045Z,92.40
2023-02-26T08:50:24.737Z,91.90
2023-02-26T08:52:51.583Z,91.30
2023-02-26T08:55:18.383Z,91.30
2023-02-26T08:57:45.187Z,90.50
2023-02-26T09:00:12.906Z,90.20
2023-02-26T09:02:39.805Z,89.50
2023-02-26T09:05:06.796Z,88.50
2023-02-26T09:07:33.501Z,88.20
2023-02-26T09:10:00.296Z,86.70
2023-02-26T09:12:27.185Z,83.20
2023-02-26T09:14:53.821Z,79.50
2023-02-26T09:17:21.581Z,76.50
2023-02-26T09:19:48.392Z,77.10
2023-02-26T09:22:15.068Z,78.90
2023-02-26T09:24:41.893Z,79.20
2023-02-26T09:27:08.594Z,77.50
2023-02-26T09:29:35.329Z,75.80
2023-02-26T09:32:02.161Z,76.30
2023-02-26T09:34:29.040Z,76.30
2023-02-26T09:36:55.678Z,74.70
2023-02-26T09:39:24.419Z,74.40
2023-02-26T09:41:54.599Z,73.70
2023-02-26T09:44:27.252Z,74.80
2023-02-26T09:47:02.531Z,71.50
2023-02-26T09:49:51.143Z,73.10
2023-02-26T09:52:35.750Z,72.90
2023-02-26T09:55:29.842Z,72.80
2023-02-26T09:58:02.940Z,71.70
2023-02-26T10:00:38.293Z,72.20
2023-02-26T10:03:10.931Z,71.60
2023-02-26T10:05:53.869Z,71.60
2023-02-26T10:08:26.417Z,68.80
2023-02-26T10:11:17.537Z,67.80
2023-02-26T10:13:57.614Z,62.80
2023-02-26T10:16:29.802Z,64.70
2023-02-26T10:19:13.987Z,65.20
2023-02-26T10:21:46.647Z,64.20
2023-02-26T10:24:22.436Z,63.50
2023-02-26T10:27:05.208Z,60.80
2023-02-26T10:29:38.457Z,62.00
2023-02-26T10:32:46.795Z,62.10
2023-02-26T10:35:18.276Z,62.00
2023-02-26T10:38:02.874Z,62.30
2023-02-26T10:40:42.453Z,60.40
2023-02-26T10:43:33.834Z,60.30
2023-02-26T10:46:06.224Z,61.30
2023-02-26T10:49:02.691Z,62.50
2023-02-26T10:51:35.764Z,60.80
2023-02-26T10:54:29.771Z,60.50
2023-02-26T10:56:57.019Z,60.30
2023-02-26T10:59:24.077Z,60.20
2023-02-26T11:01:52.508Z,61.20
2023-02-26T11:04:26.166Z,62.50
2023-02-26T11:06:59.282Z,62.00
2023-02-26T11:09:38.768Z,62.60
2023-02-26T11:12:15.641Z,62.90
2023-02-26T11:14:43.284Z,63.80
2023-02-26T11:17:23.066Z,63.30
2023-02-26T11:19:59.734Z,62.70
2023-02-26T11:22:31.167Z,62.60
2023-02-26T11:24:58.981Z,62.30
2023-02-26T11:27:36.786Z,62.40
2023-02-26T11:30:15.483Z,62.20
2023-02-26T11:32:45.498Z,62.60
2023-02-26T11:35:16.387Z,62.20
2023-02-26T11:37:50.145Z,62.60
2023-02-26T11:40:24.425Z,62.30
2023-02-26T11:42:59.172Z,62.50
2023-02-26T11:45:26.417Z,62.80
2023-02-26T11:48:02.298Z,62.30
2023-02-26T11:50:30.593Z,62.10
2023-02-26T11:53:04.991Z,62.80
2023-02-26T11:55:45.720Z,62.60
2023-02-26T11:58:22.155Z,62.70
2023-02-26T12:00:52.381Z,62.50
2023-02-26T12:03:23.558Z,63.20
2023-02-26T12:05:53.501Z,63.90
2023-02-26T12:08:39.186Z,64.20
2023-02-26T12:11:27.935Z,63.30
2023-02-26T12:14:09.984Z,64.20
2023-02-26T12:16:49.689Z,64.00
2023-02-26T12:19:42.070Z,63.40
2023-02-26T12:22:08.708Z,62.70
2023-02-26T12:24:44.884Z,63.80
2023-02-26T12:27:45.321Z,62.70
2023-02-26T12:30:23.604Z,62.90
2023-02-26T12:33:01.887Z,62.90
2023-02-26T12:35:49.731Z,63.30
2023-02-26T12:38:24.406Z,63.10
2023-02-26T12:41:22.846Z,63.10
2023-02-26T12:43:58.082Z,63.40
2023-02-26T12:46:42.672Z,62.20
2023-02-26T12:49:23.578Z,62.40
2023-02-26T12:52:21.128Z,62.50
2023-02-26T12:55:14.487Z,63.40
2023-02-26T12:58:10.361Z,63.20
2023-02-26T13:00:52.156Z,63.30
2023-02-26T13:03:54.965Z,63.00
2023-02-26T13:06:40.415Z,62.60
2023-02-26T13:09:24.990Z,63.10
2023-02-26T13:12:33.329Z,63.30
2023-02-26T13:15:02.784Z,63.40
2023-02-26T13:17:50.153Z,63.90
2023-02-26T13:20:28.082Z,63.60
2023-02-26T13:22:56.528Z,64.10
2023-02-26T13:25:52.465Z,63.50
2023-02-26T13:28:30.793Z,62.50
2023-02-26T13:30:59.769Z,62.70
2023-02-26T13:33:33.512Z,63.10
2023-02-26T13:36:01.739Z,62.80
2023-02-26T13:39:04.811Z,62.80
2023-02-26T13:41:50.546Z,62.80
2023-02-26T13:44:59.867Z,63.30
2023-02-26T13:47:35.900Z,62.90
2023-02-26T13:50:16.331Z,62.80
2023-02-26T13:53:02.817Z,62.70
2023-02-26T13:55:47.536Z,63.00
2023-02-26T13:58:23.417Z,62.90
2023-02-26T14:01:18.802Z,63.00
2023-02-26T14:03:51.839Z,62.90
2023-02-26T14:06:40.323Z,63.10
2023-02-26T14:09:36.489Z,63.20
2023-02-26T14:12:18.245Z,62.60
2023-02-26T14:15:00.274Z,62.60
2023-02-26T14:17:37.901Z,63.20
2023-02-26T14:20:19.369Z,63.60
2023-02-26T14:23:09.909Z,63.30
2023-02-26T14:25:38.704Z,62.70
2023-02-26T14:28:24.911Z,62.80
2023-02-26T14:31:14.158Z,61.30
2023-02-26T14:33:46.174Z,62.60
2023-02-26T14:36:29.218Z,61.50
2023-02-26T14:38:58.236Z,62.00
2023-02-26T14:41:33.656Z,62.40
2023-02-26T14:44:15.953Z,62.50
2023-02-26T14:46:45.342Z,62.80
2023-02-26T14:49:24.888Z,62.30
2023-02-26T14:52:19.689Z,61.60
2023-02-26T14:55:15.373Z,62.40
2023-02-26T14:58:25.168Z,62.20
2023-02-26T15:01:20.929Z,63.20
2023-02-26T15:04:03.494Z,64.10
2023-02-26T15:06:54.064Z,63.70
2023-02-26T15:09:32.777Z,63.50
2023-02-26T15:12:27.739Z,64.40
2023-02-26T15:15:19.171Z,64.00
2023-02-26T15:17:51.859Z,63.70
2023-02-26T15:20:56.230Z,63.20
2023-02-26T15:23:26.018Z,63.80
2023-02-26T15:25:53.383Z,64.40
2023-02-26T15:28:30.977Z,63.80
2023-02-26T15:31:00.771Z,63.10
2023-02-26T15:33:29.399Z,63.70
2023-02-26T15:35:57.915Z,63.60
2023-02-26T15:38:25.620Z,63.80
2023-02-26T15:40:56.422Z,63.60
2023-02-26T15:43:28.327Z,63.90
2023-02-26T15:45:57.376Z,63.80
2023-02-26T15:48:31.319Z,64.20
2023-02-26T15:51:02.335Z,64.00
2023-02-26T15:53:41.128Z,63.90
2023-02-26T15:56:13.178Z,64.50
2023-02-26T15:58:59.568Z,64.70
2023-02-26T16:01:28.855Z,64.70
2023-02-26T16:04:02.465Z,64.90
2023-02-26T16:06:31.375Z,64.40
2023-02-26T16:08:59.791Z,64.80
2023-02-26T16:11:33.272Z,64.90
2023-02-26T16:14:00.953Z,65.30
2023-02-26T16:16:43.872Z,65.40
2023-02-26T16:19:16.638Z,65.40
2023-02-26T16:21:43.774Z,65.30
2023-02-26T16:24:17.047Z,65.50
2023-02-26T16:26:53.769Z,65.20
2023-02-26T16:29:27.979Z,65.40
2023-02-26T16:31:57.126Z,65.50
2023-02-26T16:34:44.299Z,65.50
2023-02-26T16:37:24.106Z,65.50
2023-02-26T16:40:15.492Z,65.50
2023-02-26T16:42:51.780Z,65.80
2023-02-26T16:45:37.042Z,65.90
2023-02-26T16:48:22.171Z,65.80
2023-02-26T16:51:06.056Z,66.20
2023-02-26T16:53:48.399Z,66.40
2023-02-26T16:56:31.511Z,66.60
2023-02-26T16:59:12.211Z,66.60
2023-02-26T17:01:48.824Z,66.60
2023-02-26T17:04:18.154Z,66.60
2023-02-26T17:06:45.161Z,67.10
2023-02-26T17:09:39.948Z,67.00
2023-02-26T17:12:15.078Z,66.70
2023-02-26T17:14:44.638Z,67.00
2023-02-26T17:17:11.711Z,67.20
2023-02-26T17:19:38.547Z,67.40
2023-02-26T17:22:11.759Z,67.40
2023-02-26T17:24:40.938Z,67.50
2023-02-26T17:27:13.814Z,67.70
2023-02-26T17:29:43.994Z,67.70
2023-02-26T17:32:23.384Z,67.80
2023-02-26T17:34:51.581Z,67.80
2023-02-26T17:37:19.322Z,68.00
2023-02-26T17:39:46.652Z,68.20
2023-02-26T17:42:16.389Z,68.30
2023-02-26T17:44:43.320Z,68.50
2023-02-26T17:47:23.997Z,68.50
2023-02-26T17:49:50.750Z,68.60
2023-02-26T17:52:17.834Z,68.90
2023-02-26T17:54:44.930Z,68.90
2023-02-26T17:57:17.204Z,69.00
2023-02-26T17:59:44.125Z,69.10
2023-02-26T18:02:28.105Z,69.20
2023-02-26T18:04:54.971Z,69.10
2023-02-26T18:07:23.345Z,69.40
2023-02-26T18:09:50.455Z,69.40
2023-02-26T18:12:22.135Z,69.40
2023-02-26T18:14:49.305Z,69.40
2023-02-26T18:17:23.013Z,69.50
2023-02-26T18:19:49.921Z,69.50
2023-02-26T18:22:19.263Z,69.70
2023-02-26T18:24:46.269Z,69.70
2023-02-26T18:27:19.347Z,69.70
2023-02-26T18:29:46.795Z,69.80
2023-02-26T18:32:15.436Z,70.00
2023-02-26T18:34:42.936Z,70.10
2023-02-26T18:37:13.950Z,70.20
2023-02-26T18:39:40.784Z,70.20
2023-02-26T18:42:07.657Z,70.30
2023-02-26T18:44:34.330Z,70.40
2023-02-26T18:47:01.006Z,70.50
2023-02-26T18:49:27.827Z,70.50
2023-02-26T18:51:54.836Z,70.60
2023-02-26T18:54:21.622Z,70.70
2023-02-26T18:56:48.402Z,70.70
2023-02-26T18:59:15.116Z,70.80
2023-02-26T19:01:42.380Z,70.90
2023-02-26T19:04:09.066Z,70.90
2023-02-26T19:06:35.816Z,71.00
2023-02-26T19:09:04.435Z,71.00
2023-02-26T19:11:31.363Z,71.00
2023-02-26T19:13:58.389Z,71.00
2023-02-26T19:16:25.058Z,71.20
2023-02-26T19:18:51.762Z,71.30
2023-02-26T19:21:19.192Z,71.20
2023-02-26T19:23:46.008Z,71.30
2023-02-26T19:26:12.690Z,71.50
2023-02-26T19:28:39.506Z,71.40
2023-02-26T19:31:06.941Z,71.60
2023-02-26T19:33:33.782Z,71.60
2023-02-26T19:36:00.619Z,71.70
2023-02-26T19:38:27.491Z,71.70
2023-02-26T19:40:54.338Z,71.80
2023-02-26T19:43:23.217Z,72.10
2023-02-26T19:45:50.048Z,72.10
2023-02-26T19:48:16.888Z,72.00
2023-02-26T19:50:43.784Z,72.00
2023-02-26T19:53:10.512Z,72.00
2023-02-26T19:55:37.365Z,72.10
2023-02-26T19:58:04.254Z,72.10
2023-02-26T20:00:31.069Z,72.20
2023-02-26T20:02:57.934Z,72.30
2023-02-26T20:05:24.814Z,72.30
2023-02-26T20:07:51.855Z,72.50
2023-02-26T20:10:19.024Z,72.60
2023-02-26T20:12:46.105Z,72.60
2023-02-26T20:15:13.193Z,72.50
2023-02-26T20:17:40.003Z,73.40
2023-02-26T20:20:08.251Z,72.60
2023-02-26T20:22:35.341Z,72.70
2023-02-26T20:25:02.220Z,72.70
2023-02-26T20:27:29.086Z,72.70
2023-02-26T20:29:55.914Z,72.90
2023-02-26T20:32:23.592Z,73.10
2023-02-26T20:34:51.997Z,73.20
2023-02-26T20:37:18.756Z,73.30
2023-02-26T20:39:46.201Z,73.50
2023-02-26T20:42:13.207Z,73.60
2023-02-26T20:44:40.450Z,73.80
2023-02-26T20:47:07.663Z,73.80
2023-02-26T20:49:35.198Z,73.90
2023-02-26T20:52:01.966Z,74.10
2023-02-26T20:54:28.982Z,74.20
2023-02-26T20:56:55.861Z,74.40
2023-02-26T20:59:22.611Z,74.50
2023-02-26T21:01:51.455Z,74.80
2023-02-26T21:04:19.577Z,74.90
2023-02-26T21:06:46.450Z,75.00
2023-02-26T21:09:13.578Z,75.10
2023-02-26T21:11:40.729Z,75.30
2023-02-26T21:14:08.642Z,75.40
2023-02-26T21:16:36.580Z,75.40
2023-02-26T21:19:04.469Z,75.50
2023-02-26T21:21:31.653Z,75.50
2023-02-26T21:23:58.626Z,75.50
2023-02-26T21:26:27.274Z,75.60
2023-02-26T21:28:54.161Z,75.70
2023-02-26T21:31:21.928Z,75.80
2023-02-26T21:33:49.100Z,75.80
2023-02-26T21:36:16.152Z,75.90
2023-02-26T21:38:43.018Z,75.80
2023-02-26T21:41:09.805Z,75.90
2023-02-26T21:43:36.616Z,76.00
2023-02-26T21:46:05.070Z,76.00
2023-02-26T21:48:32.002Z,76.10
2023-02-26T21:50:59.679Z,76.10
2023-02-26T21:53:27.227Z,77.10
2023-02-26T21:55:55.203Z,76.50
2023-02-26T21:58:22.203Z,76.60
2023-02-26T22:00:49.427Z,76.70
2023-02-26T22:03:16.410Z,76.70
2023-02-26T22:05:43.538Z,76.80
2023-02-26T22:08:10.467Z,76.90
2023-02-26T22:10:37.350Z,77.00
2023-02-26T22:13:04.171Z,77.10
2023-02-26T22:15:31.011Z,77.20
2023-02-26T22:17:57.762Z,77.40
2023-02-26T22:20:24.545Z,77.50
2023-02-26T22:22:51.833Z,77.50
2023-02-26T22:25:18.731Z,77.60
2023-02-26T22:27:45.478Z,77.70
2023-02-26T22:30:12.764Z,77.80
2023-02-26T22:32:40.131Z,77.90
2023-02-26T22:35:07.639Z,78.00
2023-02-26T22:37:34.385Z,78.10
2023-02-26T22:40:01.095Z,78.10
2023-02-26T22:42:27.932Z,78.10
2023-02-26T22:44:54.709Z,78.10
2023-02-26T22:47:21.673Z,78.20
2023-02-26T22:49:48.876Z,78.30
2023-02-26T22:52:15.716Z,78.30
2023-02-26T22:54:42.503Z,78.30
2023-02-26T22:57:09.228Z,78.30
2023-02-26T22:59:36.045Z,78.50
2023-02-26T23:02:02.871Z,78.60
2023-02-26T23:04:29.627Z,78.70
2023-02-26T23:06:56.434Z,78.80
2023-02-26T23:09:23.269Z,78.80
2023-02-26T23:11:50.077Z,78.90
2023-02-26T23:14:17.553Z,79.00
2023-02-26T23:16:44.473Z,79.20
2023-02-26T23:19:11.759Z,79.30
2023-02-26T23:21:38.498Z,79.30
2023-02-26T23:24:05.529Z,79.40
2023-02-26T23:26:32.937Z,79.40
2023-02-26T23:28:59.758Z,79.50
2023-02-26T23:31:27.050Z,79.60
2023-02-26T23:33:54.103Z,79.80
2023-02-26T23:36:20.923Z,79.80
2023-02-26T23:38:47.653Z,80.00
2023-02-26T23:41:14.477Z,80.10
2023-02-26T23:43:41.304Z,80.10
2023-02-26T23:46:08.281Z,80.20
2023-02-26T23:48:35.044Z,80.30
2023-02-26T23:51:01.981Z,80.40
2023-02-26T23:53:28.804Z,80.40
2023-02-26T23:55:58.932Z,80.50
2023-02-26T23:58:27.312Z,80.60
